Time;durP1;ratioP1;P1;durP2;ratioP2;P2;SDS_P1;SDS_P2;PMS_P1;PMS_P2;Temp;Humidity;BMP_temperature;BMP_pressure;BME280_temperature;BME280_humidity;BME280_pressure;Samples;Min_cycle;Max_cycle;Signal;HPM_P1;HPM_P2
2022/05/03 00:02:09;;;;;;;3.70;2.88;;;;;;;7.69;66.47;93632.09;4972427;28;20466;-69
2022/05/03 00:05:00;;;;;;;3.13;2.53;;;;;;;7.89;66.75;93627.44;4967100;28;20269;-69
2022/05/03 00:08:03;;;;;;;3.33;3.03;;;;;;;8.08;66.33;93631.50;4967191;28;20743;-70
2022/05/03 00:10:39;;;;;;;3.17;2.83;;;;;;;8.09;66.46;93626.97;4979317;28;20041;-69
2022/05/03 00:13:08;;;;;;;4.55;3.15;;;;;;;7.95;64.97;93626.25;4987464;28;20041;-70
2022/05/03 00:15:37;;;;;;;4.00;3.28;;;;;;;7.28;66.91;93604.97;4991799;28;20044;-68
2022/05/03 00:18:03;;;;;;;4.07;3.30;;;;;;;7.68;67.33;93630.53;4991277;28;20045;-68
2022/05/03 00:20:29;;;;;;;4.00;3.60;;;;;;;7.51;67.75;93638.31;4991221;28;20030;-69
2022/05/03 00:22:55;;;;;;;4.00;3.42;;;;;;;7.63;67.39;93633.28;4990275;28;20022;-69
2022/05/03 00:25:21;;;;;;;3.10;2.80;;;;;;;7.53;68.22;93622.91;4985661;28;20038;-69
2022/05/03 00:27:47;;;;;;;3.67;3.05;;;;;;;7.33;67.76;93607.50;4990195;28;20045;-68
2022/05/03 00:30:13;;;;;;;3.90;3.22;;;;;;;7.62;67.68;93607.91;4990862;28;20045;-69
2022/05/03 00:32:41;;;;;;;3.50;2.60;;;;;;;7.79;66.24;93617.09;4987230;28;20026;-68
2022/05/03 00:35:11;;;;;;;3.25;2.53;;;;;;;7.24;67.71;93638.34;4988829;28;20026;-68
2022/05/03 00:37:37;;;;;;;4.13;2.65;;;;;;;6.80;68.88;93608.03;4969430;28;20034;-69
2022/05/03 00:40:04;;;;;;;2.83;2.53;;;;;;;6.56;70.09;93612.72;4983209;28;20042;-68
2022/05/03 00:42:53;;;;;;;3.63;2.72;;;;;;;5.96;72.99;93631.16;4989717;28;20152;-68
2022/05/03 00:45:43;;;;;;;4.97;3.58;;;;;;;6.04;74.18;93637.63;4987639;28;20065;-68
2022/05/03 00:48:34;;;;;;;4.32;3.33;;;;;;;6.10;74.44;93639.09;4989449;28;20148;-68
2022/05/03 00:51:12;;;;;;;4.80;3.25;;;;;;;5.94;74.30;93622.72;4992509;28;20064;-69
2022/05/03 00:54:39;;;;;;;4.43;3.35;;;;;;;6.11;74.20;93631.97;4984952;28;20037;-68
2022/05/03 00:57:20;;;;;;;3.95;3.25;;;;;;;5.80;75.39;93640.34;4906044;28;20357;-69
2022/05/03 01:00:08;;;;;;;4.45;3.50;;;;;;;5.88;75.72;93634.41;4931924;28;20129;-69
2022/05/03 01:03:09;;;;;;;4.97;3.65;;;;;;;6.18;75.48;93637.69;4963238;28;20121;-68
2022/05/03 01:06:13;;;;;;;3.63;3.25;;;;;;;5.73;75.01;93562.63;4969149;28;20065;-68
2022/05/03 01:08:51;;;;;;;5.07;3.58;;;;;;;5.65;76.57;93610.78;4967607;28;20043;-69
2022/05/03 01:11:52;;;;;;;3.53;2.90;;;;;;;5.77;77.45;93627.75;4974169;28;20285;-68
2022/05/03 01:14:46;;;;;;;3.38;3.08;;;;;;;6.09;77.03;93628.81;4964038;28;20876;-68
2022/05/03 01:17:24;;;;;;;3.30;3.00;;;;;;;6.00;75.35;93621.56;4980274;28;20038;-69
2022/05/03 01:20:04;;;;;;;3.42;2.70;;;;;;;6.05;74.49;93623.34;4972349;28;20758;-69
2022/05/03 01:23:13;;;;;;;2.55;2.30;;;;;;;5.87;73.50;93611.72;4970195;28;20120;-69
2022/05/03 01:25:45;;;;;;;3.13;2.72;;;;;;;5.79;74.30;93630.88;4925156;28;20408;-69
2022/05/03 01:28:30;;;;;;;3.20;2.63;;;;;;;5.98;74.45;93618.44;4975513;28;20046;-68
2022/05/03 01:31:04;;;;;;;2.80;2.30;;;;;;;5.83;74.08;93584.34;4973132;28;20519;-69
2022/05/03 01:33:31;;;;;;;2.42;2.22;;;;;;;6.31;73.75;93606.00;4972124;28;20148;-69
2022/05/03 01:36:00;;;;;;;2.60;2.25;;;;;;;6.69;71.73;93606.66;4979311;28;20443;-68
2022/05/03 01:38:56;;;;;;;2.35;1.95;;;;;;;6.93;70.70;93605.69;4975076;28;20121;-69
2022/05/03 01:41:31;;;;;;;3.53;2.80;;;;;;;6.62;70.19;93595.69;4998305;28;20053;-69
2022/05/03 01:44:30;;;;;;;3.08;2.30;;;;;;;6.78;69.75;93604.91;4994015;28;20026;-69
2022/05/03 01:47:08;;;;;;;3.28;2.55;;;;;;;7.02;69.30;93578.25;4992016;28;20050;-69
2022/05/03 01:50:20;;;;;;;4.20;2.53;;;;;;;7.28;68.47;93575.88;4996479;28;20042;-69
2022/05/03 01:52:52;;;;;;;3.05;2.75;;;;;;;7.33;67.46;93588.97;4992294;28;20056;-69
2022/05/03 01:55:36;;;;;;;3.13;2.53;;;;;;;7.47;66.85;93584.44;4987549;28;21174;-69
2022/05/03 01:58:26;;;;;;;2.60;1.95;;;;;;;7.30;66.13;93573.69;4989456;28;20046;-69
2022/05/03 02:01:26;;;;;;;4.53;2.90;;;;;;;7.40;67.36;93578.75;4991598;28;20057;-68
2022/05/03 02:04:00;;;;;;;4.45;2.83;;;;;;;7.51;66.82;93582.75;4977030;28;20041;-69
2022/05/03 02:06:50;;;;;;;2.45;2.17;;;;;;;7.65;67.40;93583.47;4996040;28;20038;-69
2022/05/03 02:09:28;;;;;;;2.50;2.00;;;;;;;7.41;66.47;93582.97;4992448;28;20038;-69
2022/05/03 02:12:13;;;;;;;3.13;2.30;;;;;;;6.82;69.50;93592.66;4994603;28;20617;-69
2022/05/03 02:14:52;;;;;;;2.83;2.38;;;;;;;6.93;70.09;93584.53;4994153;28;20052;-69
2022/05/03 02:17:44;;;;;;;3.30;2.83;;;;;;;7.39;69.10;93582.47;4972312;28;20026;-68
2022/05/03 02:20:31;;;;;;;3.85;2.60;;;;;;;6.62;70.87;93584.34;4989141;28;20147;-69
2022/05/03 02:23:21;;;;;;;6.03;2.28;;;;;;;6.52;72.14;93584.53;4992032;28;20054;-68
2022/05/03 02:25:51;;;;;;;3.17;2.42;;;;;;;6.68;71.53;93583.94;4988510;28;20057;-69
2022/05/03 02:28:17;;;;;;;2.78;2.25;;;;;;;6.40;71.29;93577.09;4979127;28;20088;-68
2022/05/03 02:30:46;;;;;;;2.65;2.17;;;;;;;6.64;71.88;93582.97;4981276;28;20357;-69
2022/05/03 02:33:31;;;;;;;3.33;2.70;;;;;;;5.97;74.59;93577.25;4991729;28;20041;-69
2022/05/03 02:35:59;;;;;;;3.72;3.13;;;;;;;5.90;75.83;93552.31;4992482;28;20540;-68
2022/05/03 02:38:37;;;;;;;4.20;3.00;;;;;;;5.68;76.18;93550.28;4992654;28;20450;-68
2022/05/03 02:41:03;;;;;;;4.28;3.00;;;;;;;5.65;77.13;93564.06;4977091;28;20130;-69
2022/05/03 02:43:31;;;;;;;5.82;4.05;;;;;;;5.54;77.60;93549.47;4985533;28;20082;-69
2022/05/03 02:46:09;;;;;;;5.18;3.78;;;;;;;5.75;77.45;93565.75;4982515;28;20529;-69
2022/05/03 02:48:47;;;;;;;3.38;2.72;;;;;;;5.77;76.60;93548.59;4967779;28;20038;-70
2022/05/03 02:51:18;;;;;;;4.57;2.67;;;;;;;6.14;74.87;93566.16;4973473;28;20578;-69
2022/05/03 02:53:51;;;;;;;4.53;2.75;;;;;;;5.85;75.61;93563.75;4970242;28;20023;-69
2022/05/03 02:56:19;;;;;;;5.38;3.33;;;;;;;5.69;75.88;93578.25;4971952;28;20034;-68
2022/05/03 02:59:09;;;;;;;7.13;4.00;;;;;;;5.47;77.92;93572.78;4965543;28;20411;-69
2022/05/03 03:02:14;;;;;;;4.38;3.53;;;;;;;5.39;78.47;93568.94;4972716;28;20591;-69
2022/05/03 03:04:58;;;;;;;4.63;3.63;;;;;;;5.48;78.70;93572.50;4975553;28;20065;-69
2022/05/03 03:07:25;;;;;;;5.38;3.65;;;;;;;6.02;77.36;93559.78;4972211;28;20038;-68
2022/05/03 03:10:02;;;;;;;6.65;4.65;;;;;;;5.91;76.64;93575.00;4980480;28;20074;-69
2022/05/03 03:12:36;;;;;;;4.25;3.80;;;;;;;5.66;77.17;93573.56;4985488;28;20069;-70
2022/05/03 03:15:08;;;;;;;5.55;3.95;;;;;;;5.39;77.90;93578.69;4994927;28;20189;-69
2022/05/03 03:17:48;;;;;;;4.60;3.38;;;;;;;5.43;77.87;93577.09;4991174;28;20029;-69
2022/05/03 03:20:17;;;;;;;4.70;3.45;;;;;;;5.22;78.35;93573.16;4995949;28;20029;-69
2022/05/03 03:22:45;;;;;;;6.72;4.40;;;;;;;5.19;78.74;93571.84;4990277;28;20451;-68
2022/05/03 03:25:15;;;;;;;9.57;4.60;;;;;;;5.12;79.70;93553.78;4992661;28;20120;-69
2022/05/03 03:27:43;;;;;;;7.35;4.75;;;;;;;4.99;80.86;93567.63;4985897;28;20781;-69
2022/05/03 03:30:10;;;;;;;9.02;5.80;;;;;;;4.77;82.21;93575.31;4992837;28;20502;-68
2022/05/03 03:32:38;;;;;;;7.97;5.38;;;;;;;4.69;83.31;93576.72;4987745;28;20033;-69
2022/05/03 03:35:04;;;;;;;8.25;5.25;;;;;;;4.63;84.01;93577.06;4993611;28;20029;-68
2022/05/03 03:37:35;;;;;;;6.88;5.05;;;;;;;4.59;83.99;93581.34;4993463;28;20042;-69
2022/05/03 03:40:04;;;;;;;8.20;5.53;;;;;;;4.66;84.00;93577.28;5012296;28;20217;-68
2022/05/03 03:42:29;;;;;;;9.23;6.10;;;;;;;4.43;84.38;93572.03;4987362;28;20181;-69
2022/05/03 03:45:00;;;;;;;6.88;5.40;;;;;;;4.52;84.62;93575.59;4992369;28;20049;-69
2022/05/03 03:47:28;;;;;;;10.30;4.95;;;;;;;4.54;84.80;93584.81;4986464;28;20417;-69
2022/05/03 03:49:56;;;;;;;8.65;5.28;;;;;;;4.60;84.53;93588.19;4996476;28;20111;-67
2022/05/03 03:52:22;;;;;;;11.55;5.60;;;;;;;4.52;84.54;93586.94;4990309;28;20536;-69
2022/05/03 03:54:47;;;;;;;5.53;4.82;;;;;;;4.32;84.80;93555.53;4988506;28;20046;-69
2022/05/03 03:57:13;;;;;;;10.15;6.30;;;;;;;4.58;84.68;93591.09;4990792;28;20521;-68
2022/05/03 03:59:39;;;;;;;7.65;4.72;;;;;;;4.48;84.71;93593.81;4991446;28;20037;-70
2022/05/03 04:02:05;;;;;;;7.40;5.55;;;;;;;4.40;84.92;93573.38;4990750;28;20021;-69
2022/05/03 04:04:34;;;;;;;7.47;5.53;;;;;;;4.50;84.90;93599.56;4992475;28;20045;-68
2022/05/03 04:06:59;;;;;;;8.00;5.80;;;;;;;4.57;84.67;93580.81;4990199;28;20038;-67
2022/05/03 04:09:25;;;;;;;7.18;5.22;;;;;;;4.58;84.54;93600.81;4992539;28;20101;-68
2022/05/03 04:11:51;;;;;;;8.13;6.00;;;;;;;4.57;85.30;93604.53;4993944;28;20100;-69
2022/05/03 04:14:17;;;;;;;9.13;5.45;;;;;;;4.51;85.24;93605.63;4987654;28;20479;-70
2022/05/03 04:16:42;;;;;;;7.10;5.28;;;;;;;4.47;85.75;93599.38;4993311;28;20045;-69
2022/05/03 04:19:08;;;;;;;10.23;6.13;;;;;;;4.37;86.11;93581.03;4987511;28;20046;-69
2022/05/03 04:21:34;;;;;;;10.43;6.60;;;;;;;4.58;86.03;93608.72;4991143;28;20132;-68
2022/05/03 04:24:00;;;;;;;8.63;6.03;;;;;;;4.49;85.75;93570.91;4991252;28;20068;-69
2022/05/03 04:26:26;;;;;;;10.93;6.57;;;;;;;4.82;85.76;93601.59;4990810;28;20144;-68
2022/05/03 04:28:56;;;;;;;8.23;5.82;;;;;;;4.82;85.20;93585.78;4971429;28;20455;-69
2022/05/03 04:31:25;;;;;;;8.32;5.68;;;;;;;4.99;85.19;93612.44;4971514;28;20034;-69
2022/05/03 04:33:51;;;;;;;8.50;6.40;;;;;;;4.88;84.79;93611.03;4969571;28;20136;-69
2022/05/03 04:36:16;;;;;;;8.80;6.60;;;;;;;4.85;84.24;93608.94;4970623;28;20396;-69
2022/05/03 04:38:41;;;;;;;9.60;6.10;;;;;;;4.55;84.71;93585.59;4970767;28;20034;-69
2022/05/03 04:41:07;;;;;;;8.18;5.85;;;;;;;4.60;84.68;93602.09;4974070;28;20463;-69
2022/05/03 04:43:32;;;;;;;9.20;6.43;;;;;;;4.37;84.36;93588.94;4986088;28;21353;-68
2022/05/03 04:45:59;;;;;;;8.75;6.20;;;;;;;4.52;84.23;93612.47;4990690;28;20049;-68
2022/05/03 04:48:24;;;;;;;6.97;5.35;;;;;;;4.39;84.36;93581.56;4983280;28;20415;-67
2022/05/03 04:50:49;;;;;;;7.43;5.65;;;;;;;4.51;84.11;93589.84;4977659;28;20380;-68
2022/05/03 04:53:16;;;;;;;6.53;5.03;;;;;;;4.65;83.10;93617.06;4977249;28;20018;-69
2022/05/03 04:55:42;;;;;;;6.40;5.03;;;;;;;4.65;82.82;93609.16;4972912;28;20092;-69
2022/05/03 04:58:08;;;;;;;10.90;5.57;;;;;;;4.56;82.40;93613.47;4974274;28;20034;-68
2022/05/03 05:00:33;;;;;;;7.30;5.00;;;;;;;4.56;83.21;93610.84;4970659;28;20270;-69
2022/05/03 05:02:59;;;;;;;7.07;5.18;;;;;;;4.49;83.59;93597.25;4970662;28;20268;-68
2022/05/03 05:05:24;;;;;;;7.45;5.30;;;;;;;4.50;83.50;93598.81;4967156;28;20417;-68
2022/05/03 05:07:50;;;;;;;8.10;5.53;;;;;;;4.69;83.38;93624.16;4970170;28;20121;-68
2022/05/03 05:10:26;;;;;;;6.93;5.20;;;;;;;4.78;83.57;93616.41;4969836;28;20305;-69
2022/05/03 05:12:52;;;;;;;8.15;5.78;;;;;;;4.74;82.55;93618.03;4967405;28;20047;-69
2022/05/03 05:15:18;;;;;;;7.45;5.47;;;;;;;4.70;82.86;93619.63;4967671;28;20042;-69
2022/05/03 05:17:43;;;;;;;9.45;6.28;;;;;;;4.74;81.94;93617.25;4968123;28;20565;-68
2022/05/03 05:20:09;;;;;;;7.55;5.22;;;;;;;4.75;82.43;93614.31;4966316;28;20040;-68
2022/05/03 05:22:34;;;;;;;6.70;4.70;;;;;;;4.71;81.89;93615.94;4967105;28;20519;-69
2022/05/03 05:24:59;;;;;;;5.93;4.50;;;;;;;4.57;81.21;93596.63;4964036;28;20108;-67
2022/05/03 05:27:25;;;;;;;7.20;4.88;;;;;;;4.62;81.25;93607.09;4966168;28;20046;-69
2022/05/03 05:29:50;;;;;;;6.30;5.20;;;;;;;4.61;81.88;93585.25;4958527;28;20606;-69
2022/05/03 05:32:16;;;;;;;6.40;4.43;;;;;;;4.63;81.17;93603.41;4960727;28;20045;-69
2022/05/03 05:34:41;;;;;;;8.18;4.75;;;;;;;4.61;80.08;93590.50;4957070;28;20411;-68
2022/05/03 05:37:06;;;;;;;6.05;5.00;;;;;;;4.63;81.04;93598.94;4966140;28;20065;-68
2022/05/03 05:39:32;;;;;;;8.50;5.20;;;;;;;4.85;82.08;93608.16;4960970;28;20073;-68
2022/05/03 05:41:59;;;;;;;5.55;4.30;;;;;;;4.82;80.90;93595.53;4960137;28;20034;-70
2022/05/03 05:44:28;;;;;;;5.40;4.25;;;;;;;4.78;79.48;93590.06;4959572;28;20042;-69
2022/05/03 05:46:53;;;;;;;5.05;3.80;;;;;;;4.86;79.01;93613.13;4956291;28;20089;-69
2022/05/03 05:49:19;;;;;;;8.57;4.00;;;;;;;4.99;78.84;93623.00;4963721;28;20433;-69
2022/05/03 05:51:45;;;;;;;8.68;4.03;;;;;;;4.93;78.29;93618.09;4973641;28;20053;-69
2022/05/03 05:54:11;;;;;;;7.53;4.97;;;;;;;4.83;78.60;93626.88;4972191;28;20348;-70
2022/05/03 05:56:37;;;;;;;5.72;4.47;;;;;;;4.90;79.35;93624.69;4968246;28;20026;-68
2022/05/03 05:59:02;;;;;;;4.97;3.88;;;;;;;4.93;79.37;93620.72;4969998;28;20112;-70
2022/05/03 06:01:41;;;;;;;6.28;3.50;;;;;;;5.05;78.46;93621.06;4984412;28;20537;-68
2022/05/03 06:04:07;;;;;;;5.53;3.95;;;;;;;5.05;77.30;93621.88;4974682;28;20353;-70
2022/05/03 06:06:35;;;;;;;4.38;3.22;;;;;;;5.10;76.17;93624.44;4989170;28;20498;-68
2022/05/03 06:09:02;;;;;;;3.83;3.30;;;;;;;5.16;75.75;93619.09;4981164;28;20046;-69
2022/05/03 06:11:29;;;;;;;11.27;3.75;;;;;;;5.26;73.76;93632.16;4986618;28;20034;-69
2022/05/03 06:13:54;;;;;;;8.65;3.20;;;;;;;5.14;73.63;93614.88;4961623;28;20136;-69
2022/05/03 06:16:20;;;;;;;4.68;3.15;;;;;;;5.35;72.97;93656.81;4960141;28;20043;-69
2022/05/03 06:18:46;;;;;;;3.88;3.00;;;;;;;5.42;71.28;93641.44;4960812;28;20068;-70
2022/05/03 06:21:12;;;;;;;4.88;3.05;;;;;;;5.27;70.47;93623.97;4965256;28;20030;-69
2022/05/03 06:23:37;;;;;;;5.15;4.15;;;;;;;5.39;70.54;93620.91;4975230;28;20086;-69
2022/05/03 06:26:09;;;;;;;5.20;3.28;;;;;;;5.55;70.67;93651.28;4963555;28;20022;-68
2022/05/03 06:28:35;;;;;;;5.55;3.20;;;;;;;5.44;69.93;93629.53;4988244;28;20438;-69
2022/05/03 06:31:00;;;;;;;4.30;3.28;;;;;;;5.55;70.18;93648.63;4998803;28;21234;-69
2022/05/03 06:33:26;;;;;;;3.88;2.83;;;;;;;5.34;69.18;93607.78;4982452;28;20088;-68
2022/05/03 06:35:51;;;;;;;4.45;3.35;;;;;;;5.67;71.27;93638.44;4987442;28;20132;-70
2022/05/03 06:38:17;;;;;;;7.40;3.30;;;;;;;6.01;71.11;93659.31;4990523;28;20022;-69
2022/05/03 06:40:43;;;;;;;9.15;3.67;;;;;;;6.02;69.98;93670.66;4975805;28;20050;-69
2022/05/03 06:43:09;;;;;;;4.03;3.20;;;;;;;6.10;70.38;93646.25;4947057;28;20515;-67
2022/05/03 06:45:34;;;;;;;4.55;3.40;;;;;;;6.31;70.02;93663.38;4970122;28;20042;-70
2022/05/03 06:48:00;;;;;;;9.63;3.75;;;;;;;6.39;69.88;93671.41;4985631;28;20816;-68
2022/05/03 06:50:27;;;;;;;4.68;3.20;;;;;;;6.35;70.76;93672.28;4984321;28;20136;-69
2022/05/03 06:52:52;;;;;;;4.03;2.97;;;;;;;6.28;71.31;93659.44;4989924;28;20045;-69
2022/05/03 06:55:18;;;;;;;7.45;3.25;;;;;;;6.09;69.78;93663.16;4990073;28;20366;-69
2022/05/03 06:57:44;;;;;;;5.85;4.28;;;;;;;6.27;70.50;93688.75;4974792;28;20526;-69
2022/05/03 07:00:10;;;;;;;5.82;3.83;;;;;;;6.46;70.72;93684.22;4982662;28;20769;-69
2022/05/03 07:02:36;;;;;;;5.70;3.40;;;;;;;6.40;70.04;93682.75;4984259;28;20030;-68
2022/05/03 07:05:05;;;;;;;4.68;3.83;;;;;;;6.66;69.71;93691.81;4982074;28;20493;-69
2022/05/03 07:07:32;;;;;;;4.38;3.70;;;;;;;6.74;70.47;93685.06;4978253;28;20041;-68
2022/05/03 07:09:59;;;;;;;8.23;3.65;;;;;;;6.68;69.17;93679.09;4981875;28;20038;-68
2022/05/03 07:12:25;;;;;;;4.07;3.10;;;;;;;6.58;69.66;93666.06;4982452;28;20042;-70
2022/05/03 07:14:50;;;;;;;7.60;3.65;;;;;;;6.92;70.76;93688.72;4982547;28;20100;-68
2022/05/03 07:22:51;;;;;;;7.05;3.10;;;;;;;7.23;69.23;93679.13;4963977;28;20045;-68
2022/05/03 07:25:17;;;;;;;5.18;3.95;;;;;;;7.12;69.31;93683.81;4966048;28;20447;-69
2022/05/03 07:27:46;;;;;;;7.03;3.83;;;;;;;7.01;69.75;93686.94;4956501;28;20471;-69
2022/05/03 07:30:15;;;;;;;4.90;3.80;;;;;;;6.87;70.69;93668.44;4966309;28;20056;-68
2022/05/03 07:32:45;;;;;;;9.00;4.15;;;;;;;6.82;70.79;93685.19;4973406;28;21324;-69
2022/05/03 07:35:11;;;;;;;6.20;4.13;;;;;;;6.79;70.68;93691.06;4979198;28;20056;-69
2022/05/03 07:37:37;;;;;;;8.20;4.25;;;;;;;6.54;70.20;93680.13;4974804;28;20501;-68
2022/05/03 07:40:04;;;;;;;6.22;4.05;;;;;;;6.61;70.15;93686.59;4985107;28;20052;-69
2022/05/03 07:42:29;;;;;;;6.88;4.43;;;;;;;6.78;70.00;93693.97;4981040;28;20041;-70
2022/05/03 07:44:55;;;;;;;5.88;3.78;;;;;;;6.59;69.89;93695.91;4984396;28;20042;-69
2022/05/03 07:47:20;;;;;;;9.93;4.25;;;;;;;6.22;70.84;93642.09;4982803;28;20034;-69
2022/05/03 07:49:45;;;;;;;5.13;3.85;;;;;;;6.45;70.26;93713.59;4985730;28;20403;-69
2022/05/03 07:52:11;;;;;;;10.57;4.38;;;;;;;6.58;70.87;93705.69;4984072;28;20524;-70
2022/05/03 07:54:41;;;;;;;7.45;4.38;;;;;;;6.66;71.80;93710.28;4982354;28;20632;-68
2022/05/03 07:57:07;;;;;;;9.18;3.92;;;;;;;6.61;70.23;93688.47;4980874;28;20513;-69
2022/05/03 07:59:33;;;;;;;6.10;4.03;;;;;;;6.70;69.39;93708.63;4982779;28;20397;-69
2022/05/03 08:01:59;;;;;;;6.70;4.80;;;;;;;6.62;69.23;93703.25;4980643;28;20840;-69
2022/05/03 08:04:25;;;;;;;5.05;4.03;;;;;;;6.40;69.99;93682.75;4985139;28;20595;-69
2022/05/03 08:06:50;;;;;;;8.20;4.50;;;;;;;6.66;70.28;93707.66;4983582;28;20046;-70
2022/05/03 08:09:15;;;;;;;5.22;3.95;;;;;;;6.29;71.46;93681.34;4980690;28;20046;-68
2022/05/03 08:11:41;;;;;;;6.25;4.50;;;;;;;6.35;72.41;93701.31;4983019;28;20121;-69
2022/05/03 08:14:07;;;;;;;4.93;4.43;;;;;;;6.48;74.31;93719.06;4981669;28;20017;-69
2022/05/03 08:16:33;;;;;;;7.45;4.38;;;;;;;6.47;74.59;93725.41;4980871;28;20030;-70
2022/05/03 08:18:59;;;;;;;8.18;4.45;;;;;;;6.42;74.92;93722.84;4981353;28;20041;-69
2022/05/03 08:21:25;;;;;;;4.72;4.00;;;;;;;6.38;75.12;93713.94;4983695;28;20029;-70
2022/05/03 08:23:51;;;;;;;5.93;4.35;;;;;;;6.24;74.83;93708.63;4984903;28;20034;-69
2022/05/03 08:26:17;;;;;;;4.03;3.63;;;;;;;6.21;75.53;93717.13;4976672;28;20044;-71
2022/05/03 08:28:43;;;;;;;5.18;3.97;;;;;;;6.22;75.27;93733.72;4982204;28;20164;-70
2022/05/03 08:31:09;;;;;;;5.90;4.20;;;;;;;6.18;74.93;93745.94;4976467;28;20115;-69
2022/05/03 08:33:35;;;;;;;4.47;3.63;;;;;;;6.28;75.62;93727.31;4983666;28;20237;-67
2022/05/03 08:36:00;;;;;;;24.27;9.60;;;;;;;6.20;76.45;93718.19;4980084;28;20042;-70
2022/05/03 08:43:54;;;;;;;8.57;5.35;;;;;;;6.25;76.58;93717.34;4975861;28;20132;-70
2022/05/03 08:46:21;;;;;;;6.80;4.50;;;;;;;6.42;75.62;93742.13;4979123;28;20556;-69
2022/05/03 08:48:52;;;;;;;5.80;3.90;;;;;;;6.76;75.82;93739.19;4975885;28;20067;-70
2022/05/03 08:51:21;;;;;;;5.60;3.72;;;;;;;6.68;74.16;93731.94;4979918;28;20041;-69
2022/05/03 08:53:47;;;;;;;6.13;5.22;;;;;;;6.75;74.32;93752.72;4982534;28;20026;-70
2022/05/03 08:56:12;;;;;;;5.47;4.03;;;;;;;6.74;74.82;93745.88;4983320;28;20057;-70
2022/05/03 08:58:39;;;;;;;4.72;3.40;;;;;;;6.81;75.29;93752.34;4980150;28;20457;-69
2022/05/03 09:01:04;;;;;;;5.80;2.80;;;;;;;6.56;74.67;93750.09;4982858;28;20414;-69
2022/05/03 09:03:30;;;;;;;3.40;2.85;;;;;;;6.78;75.00;93752.94;4973143;28;20049;-68
2022/05/03 09:05:56;;;;;;;3.42;3.03;;;;;;;6.62;75.37;93727.81;4984722;28;20044;-70
2022/05/03 09:08:23;;;;;;;4.20;3.25;;;;;;;6.53;75.08;93732.19;4983985;28;20147;-70
2022/05/03 09:10:49;;;;;;;6.20;3.17;;;;;;;6.83;75.78;93744.91;4979000;28;20037;-70
2022/05/03 09:13:22;;;;;;;5.88;3.55;;;;;;;6.95;75.33;93751.56;4983288;28;20038;-71
2022/05/03 09:15:51;;;;;;;4.95;3.00;;;;;;;6.82;73.74;93726.69;4972611;28;20354;-70
2022/05/03 09:18:26;;;;;;;3.47;2.58;;;;;;;7.13;73.16;93750.72;4988089;28;20038;-69
2022/05/03 09:23:49;;;;;;;4.20;3.13;;;;;;;7.04;72.51;93755.13;4983794;28;20127;-70
2022/05/03 09:26:21;;;;;;;5.43;3.40;;;;;;;7.06;71.44;93752.97;4988200;28;20022;-69
2022/05/03 09:28:55;;;;;;;4.72;3.22;;;;;;;7.30;71.84;93753.56;4978524;28;20467;-71
2022/05/03 09:31:41;;;;;;;3.72;2.60;;;;;;;7.41;69.84;93749.66;4984852;28;20125;-70
2022/05/03 09:34:17;;;;;;;3.78;2.67;;;;;;;7.64;70.10;93743.38;4979174;28;20066;-70
2022/05/03 09:36:44;;;;;;;4.25;2.60;;;;;;;7.74;67.78;93731.81;4985862;28;20049;-69
2022/05/03 09:39:24;;;;;;;4.22;2.53;;;;;;;7.69;67.33;93740.63;4984130;28;20293;-70
2022/05/03 09:42:10;;;;;;;3.42;2.67;;;;;;;7.60;65.77;93742.41;4984484;28;20228;-70
2022/05/03 09:44:40;;;;;;;4.03;2.53;;;;;;;7.46;67.82;93746.13;4985410;28;20195;-69
2022/05/03 09:47:09;;;;;;;3.60;2.75;;;;;;;7.60;68.89;93737.09;4979441;28;20038;-70
2022/05/03 09:49:39;;;;;;;3.47;2.60;;;;;;;7.59;68.36;93743.47;4987216;28;20037;-70
2022/05/03 09:52:06;;;;;;;4.38;2.97;;;;;;;7.39;68.22;93724.56;4979648;28;20043;-69
2022/05/03 09:54:50;;;;;;;4.82;3.40;;;;;;;7.49;67.57;93743.66;4961523;28;20568;-69
2022/05/03 09:57:21;;;;;;;3.47;2.75;;;;;;;7.52;67.50;93737.81;4963980;28;20174;-69
2022/05/03 09:59:48;;;;;;;4.45;3.00;;;;;;;7.50;67.29;93710.84;4962917;28;20030;-69
2022/05/03 10:02:17;;;;;;;3.78;2.45;;;;;;;7.66;64.13;93741.22;4956592;28;20461;-70
2022/05/03 10:04:45;;;;;;;2.20;1.98;;;;;;;8.02;62.22;93728.03;4968717;28;20499;-69
2022/05/03 10:07:11;;;;;;;3.63;1.83;;;;;;;7.83;58.42;93735.31;4964356;28;20498;-70
2022/05/03 10:09:38;;;;;;;2.22;1.85;;;;;;;8.04;58.90;93728.53;4971680;28;20213;-69
2022/05/03 10:12:04;;;;;;;2.20;2.00;;;;;;;8.28;59.21;93724.81;4966840;28;20053;-69
2022/05/03 10:14:30;;;;;;;3.85;2.10;;;;;;;8.47;58.92;93728.84;4973265;28;20125;-69
2022/05/03 10:22:29;;;;;;;2.92;2.13;;;;;;;7.66;59.72;93714.75;4966908;28;20053;-70
2022/05/03 10:24:56;;;;;;;3.53;2.50;;;;;;;7.78;62.52;93727.50;4963022;28;20046;-69
2022/05/03 10:27:24;;;;;;;9.13;2.47;;;;;;;7.86;62.24;93733.97;4962650;28;20153;-70
2022/05/03 10:30:20;;;;;;;2.42;2.03;;;;;;;7.93;59.93;93729.03;4966579;28;20055;-69
2022/05/03 10:33:20;;;;;;;2.20;1.73;;;;;;;7.93;58.44;93723.72;4965325;28;20042;-71
2022/05/03 10:35:49;;;;;;;2.55;2.35;;;;;;;8.01;57.67;93720.41;4959437;28;20041;-69
2022/05/03 10:38:16;;;;;;;2.80;2.00;;;;;;;8.31;58.68;93711.75;4964515;28;20026;-69
2022/05/03 10:40:43;;;;;;;1.92;1.70;;;;;;;8.58;56.93;93719.59;4972206;28;22409;-69
2022/05/03 10:43:27;;;;;;;2.50;2.20;;;;;;;8.58;56.73;93722.22;4965008;28;20069;-69
2022/05/03 10:45:58;;;;;;;3.70;2.38;;;;;;;8.35;56.66;93722.53;4961031;28;20088;-69
2022/05/03 10:48:25;;;;;;;2.33;1.75;;;;;;;8.24;56.50;93724.63;4964423;28;20054;-69
2022/05/03 10:50:53;;;;;;;1.77;1.52;;;;;;;8.24;56.52;93737.88;4970630;28;20034;-68
2022/05/03 10:53:22;;;;;;;1.92;1.70;;;;;;;8.63;57.40;93731.94;4957658;28;20034;-68
2022/05/03 10:56:20;;;;;;;2.42;2.22;;;;;;;8.98;56.04;93725.75;4965725;28;20109;-69
2022/05/03 10:59:03;;;;;;;1.95;1.83;;;;;;;8.91;54.53;93722.72;4960704;28;20073;-69
2022/05/03 11:01:28;;;;;;;3.60;1.58;;;;;;;9.21;54.62;93720.41;4969389;28;20026;-69
2022/05/03 11:04:00;;;;;;;2.45;1.70;;;;;;;9.37;54.26;93713.59;4967248;28;20050;-69
2022/05/03 11:06:25;;;;;;;2.85;2.40;;;;;;;9.01;53.37;93708.41;4962292;28;20069;-72
2022/05/03 11:11:47;;;;;;;3.83;2.47;;;;;;;9.16;54.98;93713.38;4966330;28;20030;-70
2022/05/03 11:14:21;;;;;;;4.22;2.15;;;;;;;8.92;52.84;93638.66;4967683;28;20065;-71
2022/05/03 11:17:05;;;;;;;3.08;2.10;;;;;;;9.14;53.08;93710.25;4984431;28;20053;-70
2022/05/03 11:19:34;;;;;;;3.55;2.50;;;;;;;8.81;53.15;93712.38;4968984;28;20049;-71
2022/05/03 11:22:00;;;;;;;3.95;2.55;;;;;;;8.68;54.53;93699.22;4980219;28;20345;-70
2022/05/03 11:24:32;;;;;;;2.72;2.03;;;;;;;9.05;55.68;93701.41;4988026;28;20041;-70
2022/05/03 11:27:00;;;;;;;2.33;2.10;;;;;;;9.30;54.06;93703.44;4990597;28;20034;-69
2022/05/03 11:29:37;;;;;;;2.15;1.95;;;;;;;9.30;55.02;93703.44;4986088;28;20044;-69
2022/05/03 11:32:06;;;;;;;3.15;1.92;;;;;;;9.23;52.93;93702.31;4971074;28;20038;-70
2022/05/03 11:34:31;;;;;;;2.30;1.85;;;;;;;9.22;53.15;93695.44;4968133;28;20093;-69
2022/05/03 11:36:57;;;;;;;2.30;2.10;;;;;;;9.31;54.31;93693.59;4968069;28;20046;-69
2022/05/03 11:39:22;;;;;;;3.40;1.70;;;;;;;9.41;52.38;93690.66;4970009;28;20586;-70
2022/05/03 11:41:48;;;;;;;4.20;2.08;;;;;;;9.41;53.64;93699.41;4967340;28;20029;-70
2022/05/03 11:44:15;;;;;;;2.85;2.30;;;;;;;9.38;54.17;93704.56;4970125;28;20398;-70
2022/05/03 11:46:43;;;;;;;2.42;1.90;;;;;;;9.28;52.86;93683.59;4959466;28;20038;-70
2022/05/03 11:49:11;;;;;;;2.15;1.90;;;;;;;9.28;53.87;93699.53;4960502;28;20125;-71
2022/05/03 11:57:42;;;;;;;3.38;2.20;;;;;;;9.42;53.21;93698.31;4956744;28;20050;-69
2022/05/03 12:00:13;;;;;;;2.28;2.03;;;;;;;9.58;53.43;93697.91;4949576;28;20933;-69
2022/05/03 12:02:42;;;;;;;3.55;2.25;;;;;;;9.53;53.82;93690.06;4963365;28;20588;-69
2022/05/03 12:05:08;;;;;;;4.60;1.88;;;;;;;9.72;51.81;93694.03;4962151;28;20038;-71
2022/05/03 12:07:34;;;;;;;4.13;2.60;;;;;;;9.86;51.16;93686.69;4963204;28;20034;-70
2022/05/03 12:10:00;;;;;;;4.68;2.58;;;;;;;9.72;52.15;93685.28;4968299;28;20580;-70
2022/05/03 12:12:45;;;;;;;2.83;1.88;;;;;;;9.55;53.25;93693.19;4969318;28;20049;-70
2022/05/03 12:15:24;;;;;;;2.58;1.98;;;;;;;9.15;55.48;93701.19;4963453;28;20045;-70
2022/05/03 12:18:03;;;;;;;4.93;2.70;;;;;;;8.82;57.68;93699.91;4966661;28;20070;-70
2022/05/03 12:20:46;;;;;;;2.33;2.00;;;;;;;8.91;60.62;93711.34;4954334;28;20038;-69
2022/05/03 12:23:18;;;;;;;2.05;1.67;;;;;;;8.82;61.86;93713.16;4987732;28;20620;-69
2022/05/03 12:25:46;;;;;;;2.83;2.10;;;;;;;8.80;63.23;93696.78;4962145;28;20061;-69
2022/05/03 12:28:12;;;;;;;2.83;2.00;;;;;;;8.72;64.27;93713.41;4968307;28;20409;-70
2022/05/03 12:30:37;;;;;;;2.85;2.28;;;;;;;9.00;64.86;93714.81;4969384;28;20582;-69